Blue Jay, PA

2:50 PM EDT on July 22, 2017 (GMT -0400)
MANFP1 | | Change Station

Elev 1764 ft 41.54 °N, 79.13 °W | Updated 67 days ago

Light Rain
Light Rain Mist
38.0 °F
Feels Like 38.0 °F
N
2.0
Wind Variable Wind from East
Gusts 2.0 mph

Today
High -- | Low -- °F
--% Chance of Precip.
Yesterday
High -- | Low -- °F
Precip. -- in
Pressure 29.85 in
Visibility 1.2 miles
Clouds Few 400 ft
Scattered Clouds 700 ft
Overcast 1400 ft
Dew Point 37.0 °F
Humidity 95%
Rainfall in
Snow Depth Not available.
6:01 AM 8:43 PM
Waning Crescent, 1% visible
SPECI KDUJ 221838Z AUTO 25009KT 1 1/4SM -RA BR FEW004 SCT007 OVC014 22/19 A2985 RMK AO2 PK WND 19026/1807 WSHFT 1803 TSB1756E11 P0056 T02170194
Pressure 29.85 in
Visibility 1.2 miles
Clouds Few 400 ft
Scattered Clouds 700 ft
Overcast 1400 ft
Dew Point 37.0 °F
Humidity 95%
Rainfall in
Snow Depth Not available.
6:01 AM 8:43 PM
Waning Crescent, 1% visible
SPECI KDUJ 221838Z AUTO 25009KT 1 1/4SM -RA BR FEW004 SCT007 OVC014 22/19 A2985 RMK AO2 PK WND 19026/1807 WSHFT 1803 TSB1756E11 P0056 T02170194

Get Severe Weather Alerts

Thanks for signing up!

Be on the lookout for a verification email in your inbox.

You'll start receiving the daily forecast at 6 AM.

×

10-Day Weather Forecast

Almanac

Astronomy

Jul. 22, 2017 Rise Set
Actual Time
Civil Twilight
Nautical Twilight
Astronomical Twilight
Moon
Length of Visible Light
Length of Day
Tomorrow will be .
, % of the Moon is Illuminated

Today's Extremes

State Highs State Lows

Community

WunderPhotos

Category 6

Welcome to Category 6. This is the collective home for Weather Underground's featured writeups by Dr. Jeff Masters (right), Bob Henson (left), Chris Burt, and other regular contributors.

Nearby

Air Quality

  Air Quality AQ Index Pollutant
Not available.

Snow Depth

Station Depth Elevation

Earthquake Activity

City Distance Mag. Time & Date
Minimum magnitude displayed is 2.5.

Coastal Water Temperatures

Place Temperature

Stations

Nearby Weather Stations

Station Location Temp. Windchill Dew Point Humidity Wind Precip. Elev Updated Type
                   

Watches & Warnings

There are currently no watches in effect.